createdAt,value
2023-08-19T00:01:12.128Z,10.70
2023-08-19T00:03:40.373Z,10.30
2023-08-19T00:06:11.456Z,11.60
2023-08-19T00:08:39.875Z,11.80
2023-08-19T00:11:08.008Z,13.30
2023-08-19T00:13:36.268Z,15.60
2023-08-19T00:16:05.450Z,13.00
2023-08-19T00:18:33.927Z,11.40
2023-08-19T00:21:02.162Z,11.10
2023-08-19T00:23:30.200Z,16.00
2023-08-19T00:25:58.479Z,10.50
2023-08-19T00:28:26.961Z,11.70
2023-08-19T00:30:55.133Z,12.90
2023-08-19T00:33:26.211Z,13.60
2023-08-19T00:35:54.553Z,14.70
2023-08-19T00:38:23.101Z,10.10
2023-08-19T00:40:51.177Z,11.30
2023-08-19T00:43:19.343Z,13.00
2023-08-19T00:45:52.675Z,13.10
2023-08-19T00:48:21.564Z,17.10
2023-08-19T00:50:50.889Z,12.50
2023-08-19T00:53:19.414Z,13.50
2023-08-19T00:55:47.490Z,18.90
2023-08-19T00:58:15.628Z,12.10
2023-08-19T01:00:44.496Z,14.30
2023-08-19T01:03:12.544Z,16.10
2023-08-19T01:06:03.732Z,10.80
2023-08-19T01:08:41.712Z,12.90
2023-08-19T01:11:37.889Z,13.90
2023-08-19T01:14:24.531Z,10.30
2023-08-19T01:16:55.132Z,15.50
2023-08-19T01:19:33.923Z,10.50
2023-08-19T01:22:05.964Z,11.20
2023-08-19T01:24:36.468Z,11.70
2023-08-19T01:27:22.333Z,11.50
2023-08-19T01:29:50.526Z,12.60
2023-08-19T01:32:21.368Z,10.90
2023-08-19T01:34:50.695Z,14.10
2023-08-19T01:37:31.318Z,10.50
2023-08-19T01:40:02.207Z,18.20
2023-08-19T01:42:33.884Z,11.00
2023-08-19T01:45:04.140Z,10.40
2023-08-19T01:47:32.935Z,10.60
2023-08-19T01:50:01.453Z,10.00
2023-08-19T01:52:29.498Z,10.60
2023-08-19T01:54:57.740Z,11.30
2023-08-19T01:57:29.318Z,11.50
2023-08-19T01:59:57.886Z,11.70
2023-08-19T02:02:26.057Z,9.40
2023-08-19T02:04:54.151Z,9.80
2023-08-19T02:07:22.335Z,10.90
2023-08-19T02:09:50.399Z,11.10
2023-08-19T02:12:18.712Z,16.00
2023-08-19T02:14:46.629Z,13.60
2023-08-19T02:17:14.690Z,10.40
2023-08-19T02:19:42.609Z,15.70
2023-08-19T02:22:10.756Z,14.20
2023-08-19T02:24:38.777Z,12.20
2023-08-19T02:27:06.865Z,10.40
2023-08-19T02:29:35.000Z,15.10
2023-08-19T02:32:03.575Z,10.90
2023-08-19T02:34:31.856Z,12.80
2023-08-19T02:36:59.924Z,12.20
2023-08-19T02:39:28.044Z,14.60
2023-08-19T02:41:56.290Z,11.40
2023-08-19T02:44:24.553Z,13.50
2023-08-19T02:46:52.753Z,16.90
2023-08-19T02:49:20.918Z,12.60
2023-08-19T02:51:49.096Z,13.90
2023-08-19T02:54:17.243Z,12.10
2023-08-19T02:56:45.324Z,13.10
2023-08-19T02:59:13.505Z,10.80
2023-08-19T03:01:43.250Z,10.70
2023-08-19T03:04:11.857Z,10.30
2023-08-19T03:06:40.223Z,13.00
2023-08-19T03:09:09.356Z,12.90
2023-08-19T03:11:38.103Z,13.20
2023-08-19T03:14:06.173Z,14.60
2023-08-19T03:16:34.403Z,15.30
2023-08-19T03:19:02.591Z,11.60
2023-08-19T03:21:31.005Z,11.40
2023-08-19T03:23:59.292Z,12.60
2023-08-19T03:26:27.339Z,12.90
2023-08-19T03:28:57.065Z,12.90
2023-08-19T03:31:25.873Z,18.20
2023-08-19T03:33:54.782Z,15.90
2023-08-19T03:36:22.998Z,14.80
2023-08-19T03:38:51.203Z,14.40
2023-08-19T03:41:19.180Z,12.50
2023-08-19T03:43:47.285Z,12.30
2023-08-19T03:46:15.588Z,11.80
2023-08-19T03:48:43.643Z,13.00
2023-08-19T03:51:11.658Z,15.30
2023-08-19T03:53:39.820Z,15.60
2023-08-19T03:56:08.162Z,12.70
2023-08-19T03:58:36.260Z,13.50
2023-08-19T04:01:08.827Z,16.40
2023-08-19T04:03:40.106Z,18.60
2023-08-19T04:06:08.149Z,11.20
2023-08-19T04:08:36.614Z,17.50
2023-08-19T04:11:06.221Z,11.70
2023-08-19T04:13:34.651Z,9.70
2023-08-19T04:16:07.044Z,12.40
2023-08-19T04:18:36.781Z,14.90
2023-08-19T04:21:06.748Z,13.70
2023-08-19T04:23:35.385Z,13.90
2023-08-19T04:26:04.597Z,16.50
2023-08-19T04:28:33.312Z,12.80
2023-08-19T04:31:06.333Z,13.50
2023-08-19T04:33:40.689Z,13.60
2023-08-19T04:36:09.105Z,12.80
2023-08-19T04:38:37.424Z,15.60
2023-08-19T04:41:08.339Z,15.20
2023-08-19T04:43:46.851Z,16.10
2023-08-19T04:46:16.824Z,11.50
2023-08-19T04:48:44.925Z,12.80
2023-08-19T04:51:13.337Z,12.80
2023-08-19T04:53:41.713Z,16.40
2023-08-19T04:56:09.825Z,11.90
2023-08-19T04:58:38.064Z,16.50
2023-08-19T05:01:06.437Z,13.80
2023-08-19T05:03:36.298Z,12.70
2023-08-19T05:06:04.822Z,18.50
2023-08-19T05:08:43.037Z,15.20
2023-08-19T05:11:11.200Z,15.30
2023-08-19T05:13:39.741Z,17.60
2023-08-19T05:16:13.421Z,11.90
2023-08-19T05:18:42.641Z,18.40
2023-08-19T05:21:11.007Z,17.10
2023-08-19T05:23:40.220Z,14.80
2023-08-19T05:26:08.866Z,20.40
2023-08-19T05:28:37.051Z,17.30
2023-08-19T05:31:05.272Z,16.40
2023-08-19T05:33:33.547Z,15.00
2023-08-19T05:36:01.705Z,20.70
2023-08-19T05:38:30.009Z,23.90
2023-08-19T05:40:58.923Z,20.10
2023-08-19T05:43:27.038Z,15.80
2023-08-19T05:45:55.197Z,15.80
2023-08-19T05:48:23.388Z,14.10
2023-08-19T05:50:51.437Z,15.50
2023-08-19T05:53:19.488Z,16.50
2023-08-19T05:55:49.090Z,15.10
2023-08-19T05:58:17.273Z,17.80
2023-08-19T06:00:45.993Z,19.60
2023-08-19T06:03:15.456Z,19.30
2023-08-19T06:05:43.956Z,14.80
2023-08-19T06:08:13.760Z,19.00
2023-08-19T06:10:45.375Z,16.90
2023-08-19T06:13:14.469Z,21.60
2023-08-19T06:15:42.650Z,22.20
2023-08-19T06:18:10.848Z,24.10
2023-08-19T06:20:38.842Z,25.80
2023-08-19T06:23:07.144Z,21.00
2023-08-19T06:25:35.287Z,29.50
2023-08-19T06:28:03.646Z,27.80
2023-08-19T06:30:32.114Z,20.90
2023-08-19T06:33:00.620Z,26.20
2023-08-19T06:35:28.983Z,18.50
2023-08-19T06:38:00.806Z,20.50
2023-08-19T06:40:35.360Z,23.30
2023-08-19T06:43:07.866Z,20.20
2023-08-19T06:45:36.565Z,20.00
2023-08-19T06:48:07.886Z,25.70
2023-08-19T06:50:36.328Z,23.90
2023-08-19T06:53:06.594Z,24.10
2023-08-19T06:55:35.174Z,15.70
2023-08-19T06:58:05.053Z,18.20
2023-08-19T07:00:35.544Z,14.40
2023-08-19T07:03:05.843Z,17.80
2023-08-19T07:05:36.338Z,19.60
2023-08-19T07:08:07.816Z,21.70
2023-08-19T07:10:36.499Z,16.00
2023-08-19T07:13:04.872Z,15.00
2023-08-19T07:15:33.426Z,15.70
2023-08-19T07:18:04.069Z,14.70
2023-08-19T07:20:32.961Z,17.20
2023-08-19T07:23:01.814Z,24.80
2023-08-19T07:25:30.452Z,15.90
2023-08-19T07:28:03.936Z,15.90
2023-08-19T07:30:32.563Z,21.80
2023-08-19T07:33:01.356Z,16.40
2023-08-19T07:35:29.422Z,18.30
2023-08-19T07:37:57.589Z,15.00
2023-08-19T07:40:25.727Z,15.30
2023-08-19T07:42:53.836Z,15.00
2023-08-19T07:45:21.875Z,14.90
2023-08-19T07:47:50.369Z,20.00
2023-08-19T07:50:18.789Z,16.40
2023-08-19T07:52:46.863Z,17.50
2023-08-19T07:55:15.040Z,14.30
2023-08-19T07:57:43.306Z,15.10
2023-08-19T08:00:11.970Z,12.70
2023-08-19T08:02:43.339Z,13.50
2023-08-19T08:05:11.837Z,12.10
2023-08-19T08:07:40.036Z,12.20
2023-08-19T08:10:08.484Z,15.10
2023-08-19T08:12:36.626Z,12.60
2023-08-19T08:15:05.265Z,9.80
2023-08-19T08:17:33.684Z,9.90
2023-08-19T08:20:02.086Z,13.90
2023-08-19T08:22:30.219Z,9.50
2023-08-19T08:24:58.320Z,9.30
2023-08-19T08:27:26.776Z,12.50
2023-08-19T08:29:55.336Z,8.80
2023-08-19T08:32:23.605Z,8.80
2023-08-19T08:34:51.829Z,10.70
2023-08-19T08:37:21.367Z,9.30
2023-08-19T08:39:49.751Z,12.20
2023-08-19T08:42:18.750Z,16.90
2023-08-19T08:44:51.013Z,9.50
2023-08-19T08:47:21.672Z,10.40
2023-08-19T08:49:51.019Z,11.00
2023-08-19T08:52:21.376Z,17.30
2023-08-19T08:54:53.238Z,11.40
2023-08-19T08:57:21.589Z,10.00
2023-08-19T08:59:50.247Z,8.90
2023-08-19T09:02:18.734Z,10.90
2023-08-19T09:04:47.831Z,11.10
2023-08-19T09:07:26.730Z,12.70
2023-08-19T09:09:59.621Z,8.70
2023-08-19T09:12:31.687Z,10.60
2023-08-19T09:15:05.129Z,16.70
2023-08-19T09:17:35.073Z,15.60
2023-08-19T09:20:05.119Z,16.00
2023-08-19T09:22:34.506Z,11.30
2023-08-19T09:25:07.347Z,13.40
2023-08-19T09:27:35.519Z,10.60
2023-08-19T09:30:03.868Z,12.80
2023-08-19T09:32:34.229Z,10.00
2023-08-19T09:35:07.255Z,11.70
2023-08-19T09:37:37.028Z,12.30
2023-08-19T09:40:12.649Z,11.30
2023-08-19T09:42:42.039Z,11.50
2023-08-19T09:45:19.113Z,9.80
2023-08-19T09:47:49.840Z,9.80
2023-08-19T09:50:20.406Z,9.80
2023-08-19T09:52:55.667Z,13.60
2023-08-19T09:55:35.505Z,10.40
2023-08-19T09:58:03.688Z,7.00
2023-08-19T10:00:31.827Z,9.10
2023-08-19T10:03:00.390Z,8.20
2023-08-19T10:05:30.302Z,13.40
2023-08-19T10:08:04.675Z,9.50
2023-08-19T10:10:34.667Z,10.40
2023-08-19T10:13:04.818Z,7.00
2023-08-19T10:15:34.799Z,10.30
2023-08-19T10:18:11.176Z,8.70
2023-08-19T10:20:42.053Z,10.40
2023-08-19T10:23:11.639Z,13.20
2023-08-19T10:25:42.693Z,9.40
2023-08-19T10:28:24.046Z,11.70
2023-08-19T10:31:10.707Z,7.40
2023-08-19T10:33:49.327Z,9.80
2023-08-19T10:36:18.897Z,14.70
2023-08-19T10:38:57.594Z,13.10
2023-08-19T10:41:31.098Z,13.50
2023-08-19T10:44:00.511Z,7.50
2023-08-19T10:46:37.493Z,10.90
2023-08-19T10:49:07.454Z,6.80
2023-08-19T10:52:08.377Z,11.60
2023-08-19T10:54:43.286Z,7.70
2023-08-19T10:57:14.200Z,8.90
2023-08-19T10:59:44.840Z,13.20
2023-08-19T11:02:14.045Z,7.40
2023-08-19T11:04:48.540Z,10.20
2023-08-19T11:07:17.789Z,11.20
2023-08-19T11:09:48.039Z,12.00
2023-08-19T11:12:19.030Z,9.10
2023-08-19T11:14:56.710Z,6.60
2023-08-19T11:17:30.382Z,9.50
2023-08-19T11:20:11.206Z,10.00
2023-08-19T11:22:47.120Z,8.40
2023-08-19T11:25:16.469Z,9.30
2023-08-19T11:27:44.781Z,6.40
2023-08-19T11:30:15.501Z,7.50
2023-08-19T11:32:50.586Z,7.50
2023-08-19T11:35:18.815Z,13.60
2023-08-19T11:37:46.994Z,8.00
2023-08-19T11:40:27.499Z,7.40
2023-08-19T11:43:12.479Z,8.10
2023-08-19T11:45:42.074Z,10.60
2023-08-19T11:48:17.535Z,9.50
2023-08-19T11:50:46.725Z,10.20
2023-08-19T11:53:25.300Z,8.40
2023-08-19T11:55:59.796Z,7.20
2023-08-19T12:01:09.516Z,6.90
2023-08-19T12:03:42.873Z,10.60
2023-08-19T12:06:11.107Z,7.30
2023-08-19T12:08:44.232Z,8.00
2023-08-19T12:11:13.851Z,10.50
2023-08-19T12:13:42.475Z,10.60
2023-08-19T12:16:10.539Z,8.30
2023-08-19T12:18:39.712Z,9.40
2023-08-19T12:21:09.110Z,7.30
2023-08-19T12:23:37.668Z,11.50
2023-08-19T12:26:05.727Z,6.20
2023-08-19T12:28:34.045Z,10.80
2023-08-19T12:31:02.214Z,7.60
2023-08-19T12:33:30.311Z,9.80
2023-08-19T12:36:16.104Z,8.70
2023-08-19T12:38:46.908Z,14.90
2023-08-19T12:41:15.730Z,8.30
2023-08-19T12:43:44.057Z,12.80
2023-08-19T12:46:12.822Z,10.80
2023-08-19T12:48:41.180Z,10.80
2023-08-19T12:51:09.391Z,14.10
2023-08-19T12:53:37.397Z,11.50
2023-08-19T12:56:05.541Z,13.10
2023-08-19T12:58:34.434Z,10.50
2023-08-19T13:01:06.218Z,6.70
2023-08-19T13:03:36.303Z,7.90
2023-08-19T13:06:04.693Z,8.60
2023-08-19T13:08:32.705Z,11.00
2023-08-19T13:11:02.529Z,10.10
2023-08-19T13:13:30.469Z,10.10
2023-08-19T13:15:58.489Z,12.40
2023-08-19T13:18:26.570Z,8.90
2023-08-19T13:20:54.733Z,11.10
2023-08-19T13:23:22.885Z,10.50
2023-08-19T13:25:51.190Z,8.10
2023-08-19T13:28:19.287Z,8.60
2023-08-19T13:30:48.263Z,10.00
2023-08-19T13:33:16.407Z,10.80
2023-08-19T13:35:44.544Z,8.30
2023-08-19T13:38:12.677Z,8.50
2023-08-19T13:40:40.757Z,6.90
2023-08-19T13:43:08.847Z,15.40
2023-08-19T13:45:36.941Z,10.40
2023-08-19T13:48:14.611Z,8.40
2023-08-19T13:50:44.868Z,10.30
2023-08-19T13:53:13.014Z,9.90
2023-08-19T13:55:43.726Z,9.10
2023-08-19T13:58:12.182Z,10.90
2023-08-19T14:00:40.313Z,11.70
2023-08-19T14:03:08.655Z,8.50
2023-08-19T14:05:37.075Z,11.30
2023-08-19T14:08:05.602Z,9.70
2023-08-19T14:10:33.812Z,9.40
2023-08-19T14:13:01.867Z,11.30
2023-08-19T14:15:29.986Z,9.80
2023-08-19T14:17:58.535Z,8.00
2023-08-19T14:20:26.689Z,7.30
2023-08-19T14:22:54.862Z,8.10
2023-08-19T14:25:23.303Z,9.60
2023-08-19T14:27:53.591Z,10.10
2023-08-19T14:30:23.446Z,11.30
2023-08-19T14:32:51.631Z,9.20
2023-08-19T14:35:20.120Z,8.10
2023-08-19T14:37:48.330Z,9.30
2023-08-19T14:40:16.656Z,9.60
2023-08-19T14:42:44.922Z,8.60
2023-08-19T14:45:13.639Z,12.00
2023-08-19T14:47:41.978Z,14.80
2023-08-19T14:50:10.403Z,9.80
2023-08-19T14:52:38.681Z,9.90
2023-08-19T14:55:11.012Z,9.60
2023-08-19T14:57:40.028Z,10.00
2023-08-19T15:00:13.004Z,6.80
2023-08-19T15:02:52.367Z,8.20
2023-08-19T15:05:21.101Z,11.30
2023-08-19T15:07:49.458Z,13.10
2023-08-19T15:10:17.736Z,8.40
2023-08-19T15:12:46.800Z,7.80
2023-08-19T15:15:18.822Z,13.20
2023-08-19T15:17:47.613Z,11.40
2023-08-19T15:20:16.155Z,21.00
2023-08-19T15:22:45.011Z,11.10
2023-08-19T15:25:13.139Z,13.80
2023-08-19T15:27:44.547Z,10.70
2023-08-19T15:30:13.370Z,8.60
2023-08-19T15:32:49.373Z,9.00
2023-08-19T15:35:19.365Z,9.30
2023-08-19T15:37:47.805Z,11.00
2023-08-19T15:40:15.938Z,8.40
2023-08-19T15:42:44.057Z,8.30
2023-08-19T15:45:12.684Z,8.60
2023-08-19T15:47:42.371Z,9.10
2023-08-19T15:50:11.196Z,9.80
2023-08-19T15:52:39.500Z,10.30
2023-08-19T15:55:10.084Z,8.70
2023-08-19T15:57:38.925Z,9.10
2023-08-19T16:00:09.758Z,10.10
2023-08-19T16:02:38.137Z,9.70
2023-08-19T16:05:06.883Z,12.30
2023-08-19T16:07:39.168Z,10.50
2023-08-19T16:10:08.665Z,11.10
2023-08-19T16:12:37.960Z,15.10
2023-08-19T16:15:06.457Z,8.40
2023-08-19T16:17:34.901Z,11.90
2023-08-19T16:20:05.217Z,7.00
2023-08-19T16:22:33.776Z,11.00
2023-08-19T16:25:02.829Z,10.50
2023-08-19T16:27:30.854Z,11.30
2023-08-19T16:30:00.358Z,10.20
2023-08-19T16:32:29.129Z,11.30
2023-08-19T16:34:57.450Z,14.10
2023-08-19T16:37:25.434Z,12.20
2023-08-19T16:39:54.002Z,10.00
2023-08-19T16:42:23.886Z,8.90
2023-08-19T16:44:53.412Z,13.20
2023-08-19T16:47:24.027Z,7.60
2023-08-19T16:49:52.188Z,10.30
2023-08-19T16:52:21.188Z,9.80
2023-08-19T16:54:49.601Z,11.20
2023-08-19T16:57:17.876Z,10.10
2023-08-19T16:59:45.994Z,12.30
2023-08-19T17:02:14.191Z,10.10
2023-08-19T17:04:46.644Z,11.40
2023-08-19T17:07:15.187Z,12.60
2023-08-19T17:09:44.244Z,10.60
2023-08-19T17:12:12.855Z,14.60
2023-08-19T17:14:41.198Z,14.40
2023-08-19T17:17:09.313Z,9.10
2023-08-19T17:19:37.523Z,11.20
2023-08-19T17:22:05.807Z,15.20
2023-08-19T17:24:34.027Z,12.70
2023-08-19T17:27:02.326Z,12.70
2023-08-19T17:29:31.314Z,9.70
2023-08-19T17:31:59.326Z,9.60
2023-08-19T17:34:27.331Z,14.20
2023-08-19T17:36:55.426Z,14.20
2023-08-19T17:39:24.063Z,14.00
2023-08-19T17:41:52.144Z,8.90
2023-08-19T17:44:21.226Z,13.30
2023-08-19T17:46:49.115Z,13.00
2023-08-19T17:49:17.073Z,13.80
2023-08-19T17:51:50.329Z,12.20
2023-08-19T17:54:18.503Z,12.60
2023-08-19T17:56:46.561Z,11.80
2023-08-19T17:59:14.735Z,14.40
2023-08-19T18:01:42.923Z,14.20
2023-08-19T18:04:10.976Z,11.00
2023-08-19T18:06:39.294Z,12.00
2023-08-19T18:09:07.547Z,10.20
2023-08-19T18:11:36.329Z,20.30
2023-08-19T18:14:06.258Z,10.90
2023-08-19T18:16:34.629Z,14.90
2023-08-19T18:19:02.922Z,11.50
2023-08-19T18:21:31.270Z,14.90
2023-08-19T18:23:59.564Z,14.80
2023-08-19T18:26:27.723Z,11.80
2023-08-19T18:28:55.786Z,10.50
2023-08-19T18:31:24.138Z,14.90
2023-08-19T18:33:52.253Z,12.70
2023-08-19T18:36:20.328Z,20.20
2023-08-19T18:38:48.644Z,16.20
2023-08-19T18:41:16.811Z,18.40
2023-08-19T18:43:44.896Z,16.60
2023-08-19T18:46:13.149Z,18.60
2023-08-19T18:48:41.172Z,18.00
2023-08-19T18:51:09.296Z,14.70
2023-08-19T18:53:37.523Z,23.50
2023-08-19T18:56:05.872Z,18.40
2023-08-19T18:58:34.124Z,17.70
2023-08-19T19:01:08.519Z,16.40
2023-08-19T19:03:38.269Z,14.70
2023-08-19T19:06:06.643Z,19.90
2023-08-19T19:08:35.151Z,18.00
2023-08-19T19:11:04.928Z,16.60
2023-08-19T19:13:33.080Z,14.80
2023-08-19T19:16:01.220Z,16.10
2023-08-19T19:18:29.346Z,17.30
2023-08-19T19:20:57.500Z,14.90
2023-08-19T19:23:26.557Z,16.60
2023-08-19T19:25:54.849Z,14.20
2023-08-19T19:28:23.049Z,14.00
2023-08-19T19:30:51.563Z,15.40
2023-08-19T19:33:19.565Z,18.60
2023-08-19T19:35:48.000Z,15.50
2023-08-19T19:38:16.285Z,18.30
2023-08-19T19:40:44.346Z,17.10
2023-08-19T19:43:12.659Z,17.70
2023-08-19T19:45:42.718Z,14.10
2023-08-19T19:48:12.059Z,15.10
2023-08-19T19:50:41.809Z,15.10
2023-08-19T19:53:10.174Z,15.30
2023-08-19T19:55:38.568Z,14.80
2023-08-19T19:58:06.682Z,14.70
2023-08-19T20:00:36.832Z,16.30
2023-08-19T20:03:05.237Z,18.90
2023-08-19T20:05:33.643Z,12.30
2023-08-19T20:08:01.986Z,16.90
2023-08-19T20:10:30.039Z,17.10
2023-08-19T20:12:58.121Z,11.80
2023-08-19T20:15:29.885Z,14.40
2023-08-19T20:17:58.790Z,14.50
2023-08-19T20:20:27.086Z,14.90
2023-08-19T20:22:55.061Z,15.70
2023-08-19T20:25:23.097Z,18.30
2023-08-19T20:27:51.206Z,13.60
2023-08-19T20:30:19.576Z,15.00
2023-08-19T20:32:48.241Z,16.20
2023-08-19T20:35:19.557Z,13.50
2023-08-19T20:37:47.660Z,12.30
2023-08-19T20:40:16.136Z,18.90
2023-08-19T20:42:44.501Z,13.80
2023-08-19T20:45:13.487Z,13.30
2023-08-19T20:47:43.138Z,16.00
2023-08-19T20:50:11.647Z,13.70
2023-08-19T20:52:41.071Z,18.30
2023-08-19T20:55:09.697Z,19.70
2023-08-19T20:57:38.048Z,16.50
2023-08-19T21:00:07.979Z,14.40
2023-08-19T21:02:36.201Z,13.60
2023-08-19T21:05:04.734Z,14.50
2023-08-19T21:07:34.400Z,14.00
2023-08-19T21:10:05.229Z,18.00
2023-08-19T21:12:33.544Z,16.40
2023-08-19T21:15:01.837Z,17.80
2023-08-19T21:17:30.025Z,13.50
2023-08-19T21:19:58.332Z,19.10
2023-08-19T21:22:26.462Z,12.60
2023-08-19T21:24:54.833Z,16.20
2023-08-19T21:27:23.324Z,11.90
2023-08-19T21:29:51.810Z,11.20
2023-08-19T21:32:19.927Z,12.90
2023-08-19T21:34:48.029Z,11.60
2023-08-19T21:37:16.214Z,11.80
2023-08-19T21:39:44.249Z,17.70
2023-08-19T21:42:12.297Z,11.50
2023-08-19T21:44:40.246Z,14.10
2023-08-19T21:47:08.257Z,13.60
2023-08-19T21:49:36.965Z,14.40
2023-08-19T21:52:05.549Z,16.00
2023-08-19T21:54:33.652Z,13.70
2023-08-19T21:57:01.792Z,15.20
2023-08-19T21:59:29.844Z,13.10
2023-08-19T22:01:57.928Z,14.20
2023-08-19T22:04:26.117Z,12.60
2023-08-19T22:06:54.194Z,19.80
2023-08-19T22:09:22.357Z,16.10
2023-08-19T22:11:50.383Z,14.10
2023-08-19T22:14:18.403Z,17.60
2023-08-19T22:16:46.491Z,17.10
2023-08-19T22:19:14.733Z,14.60
2023-08-19T22:21:42.946Z,12.00
2023-08-19T22:24:11.354Z,12.90
2023-08-19T22:26:39.471Z,11.10
2023-08-19T22:29:07.701Z,12.00
2023-08-19T22:31:36.422Z,14.00
2023-08-19T22:34:04.972Z,12.60
2023-08-19T22:36:32.998Z,12.30
2023-08-19T22:39:03.470Z,14.00
2023-08-19T22:41:31.442Z,14.30
2023-08-19T22:43:59.594Z,11.40
2023-08-19T22:46:27.952Z,15.30
2023-08-19T22:48:55.946Z,12.30
2023-08-19T22:51:23.938Z,14.50
2023-08-19T22:53:52.027Z,14.90
2023-08-19T22:56:19.997Z,13.60
2023-08-19T22:58:47.984Z,16.50
2023-08-19T23:01:15.971Z,15.60
2023-08-19T23:03:44.054Z,12.50
2023-08-19T23:06:12.191Z,18.50
2023-08-19T23:08:42.731Z,13.00
2023-08-19T23:11:10.932Z,12.20
2023-08-19T23:13:39.071Z,10.00
2023-08-19T23:16:07.230Z,15.30
2023-08-19T23:18:35.286Z,20.40
2023-08-19T23:21:04.061Z,11.00
2023-08-19T23:23:32.180Z,17.80
2023-08-19T23:26:00.410Z,16.60
2023-08-19T23:28:28.647Z,15.00
2023-08-19T23:30:56.734Z,17.00
2023-08-19T23:33:24.908Z,11.60
2023-08-19T23:35:53.057Z,15.00
2023-08-19T23:38:21.312Z,13.90
2023-08-19T23:40:49.629Z,15.30
2023-08-19T23:43:18.146Z,12.40
2023-08-19T23:45:46.462Z,14.00
2023-08-19T23:48:15.452Z,12.80
2023-08-19T23:50:43.965Z,12.70
2023-08-19T23:53:14.106Z,11.50
2023-08-19T23:55:42.663Z,15.30
2023-08-19T23:58:10.967Z,12.70
